createdAt,value
2023-02-23T00:02:14.064Z,7.80
2023-02-23T00:04:49.008Z,7.80
2023-02-23T00:07:19.346Z,7.80
2023-02-23T00:09:54.075Z,7.80
2023-02-23T00:12:28.041Z,7.80
2023-02-23T00:15:01.027Z,7.80
2023-02-23T00:17:27.908Z,7.80
2023-02-23T00:19:55.296Z,7.70
2023-02-23T00:22:29.064Z,7.80
2023-02-23T00:24:57.487Z,7.70
2023-02-23T00:27:31.021Z,7.70
2023-02-23T00:30:04.076Z,7.70
2023-02-23T00:32:31.046Z,7.70
2023-02-23T00:35:05.090Z,7.70
2023-02-23T00:37:38.055Z,7.70
2023-02-23T00:40:13.798Z,7.70
2023-02-23T00:42:48.069Z,7.70
2023-02-23T00:45:22.063Z,7.70
2023-02-23T00:47:58.106Z,7.70
2023-02-23T00:50:24.927Z,7.70
2023-02-23T00:52:58.110Z,7.70
2023-02-23T00:55:25.179Z,7.70
2023-02-23T00:57:58.109Z,7.70
2023-02-23T01:00:28.348Z,7.70
2023-02-23T01:03:08.094Z,7.80
2023-02-23T01:05:35.383Z,7.70
2023-02-23T01:08:09.112Z,7.70
2023-02-23T01:10:50.123Z,7.70
2023-02-23T01:13:18.053Z,7.70
2023-02-23T01:15:51.150Z,7.70
2023-02-23T01:18:20.173Z,7.70
2023-02-23T01:20:54.160Z,7.70
2023-02-23T01:23:21.865Z,7.70
2023-02-23T01:25:56.139Z,7.70
2023-02-23T01:28:31.149Z,7.70
2023-02-23T01:30:57.956Z,7.70
2023-02-23T01:33:31.146Z,7.70
2023-02-23T01:35:59.380Z,7.70
2023-02-23T01:38:33.163Z,7.70
2023-02-23T01:41:06.152Z,7.70
2023-02-23T01:43:33.268Z,7.70
2023-02-23T01:46:06.192Z,7.80
2023-02-23T01:48:44.164Z,7.70
2023-02-23T01:51:18.275Z,7.70
2023-02-23T01:54:01.199Z,7.70
2023-02-23T01:56:32.925Z,7.70
2023-02-23T01:59:12.218Z,7.70
2023-02-23T02:01:43.047Z,7.70
2023-02-23T02:04:23.180Z,7.70
2023-02-23T02:06:53.643Z,7.70
2023-02-23T02:09:34.218Z,7.70
2023-02-23T02:12:02.580Z,7.70
2023-02-23T02:14:38.241Z,7.70
2023-02-23T02:17:35.576Z,7.70
2023-02-23T02:20:50.234Z,7.70
2023-02-23T02:23:40.373Z,7.70
2023-02-23T02:26:42.261Z,7.70
2023-02-23T02:29:46.276Z,7.70
2023-02-23T02:32:46.231Z,7.70
2023-02-23T02:35:47.245Z,7.70
2023-02-23T02:38:35.497Z,7.70
2023-02-23T02:41:18.532Z,7.60
2023-02-23T02:44:04.579Z,7.60
2023-02-23T02:46:45.303Z,7.70
2023-02-23T02:49:28.088Z,7.70
2023-02-23T02:52:07.300Z,7.70
2023-02-23T02:54:40.635Z,7.70
2023-02-23T02:57:16.289Z,7.70
2023-02-23T03:00:13.281Z,7.70
2023-02-23T03:03:06.321Z,7.70
2023-02-23T03:06:03.945Z,7.70
2023-02-23T03:09:19.327Z,7.70
2023-02-23T03:12:47.315Z,7.70
2023-02-23T03:16:03.543Z,7.60
2023-02-23T03:19:04.623Z,7.60
2023-02-23T03:22:16.189Z,7.60
2023-02-23T03:25:17.383Z,7.60
2023-02-23T03:28:09.946Z,7.60
2023-02-23T03:31:22.479Z,7.60
2023-02-23T03:34:26.316Z,7.60
2023-02-23T03:37:50.385Z,7.60
2023-02-23T03:40:45.382Z,7.60
2023-02-23T03:43:43.382Z,7.60
2023-02-23T03:46:31.424Z,7.60
2023-02-23T03:49:27.363Z,7.60
2023-02-23T03:52:17.617Z,7.60
2023-02-23T03:55:16.372Z,7.60
2023-02-23T03:58:04.500Z,7.60
2023-02-23T04:01:03.531Z,7.50
2023-02-23T04:03:53.234Z,7.50
2023-02-23T04:06:48.397Z,7.50
2023-02-23T04:09:34.249Z,7.50
2023-02-23T04:12:39.688Z,7.50
2023-02-23T04:15:21.340Z,7.50
2023-02-23T04:17:54.420Z,7.50
2023-02-23T04:20:21.851Z,7.50
2023-02-23T04:22:55.432Z,7.50
2023-02-23T04:25:22.932Z,7.50
2023-02-23T04:27:50.869Z,7.50
2023-02-23T04:30:25.661Z,7.50
2023-02-23T04:33:00.443Z,7.50
2023-02-23T04:35:29.892Z,7.50
2023-02-23T04:38:03.461Z,7.50
2023-02-23T04:40:30.742Z,7.50
2023-02-23T04:43:11.727Z,7.50
2023-02-23T04:45:38.672Z,7.40
2023-02-23T04:48:06.201Z,7.50
2023-02-23T04:50:40.602Z,7.50
2023-02-23T04:53:08.163Z,7.40
2023-02-23T04:55:35.074Z,7.40
2023-02-23T04:58:09.476Z,7.40
2023-02-23T05:00:45.508Z,7.40
2023-02-23T05:03:17.632Z,7.40
2023-02-23T05:05:51.484Z,7.40
2023-02-23T05:08:18.245Z,7.40
2023-02-23T05:10:52.519Z,7.40
2023-02-23T05:13:20.596Z,7.40
2023-02-23T05:15:54.489Z,7.40
2023-02-23T05:18:21.249Z,7.40
2023-02-23T05:20:54.528Z,7.40
2023-02-23T05:23:21.904Z,7.40
2023-02-23T05:25:55.536Z,7.40
2023-02-23T05:28:22.941Z,7.40
2023-02-23T05:30:56.650Z,7.40
2023-02-23T05:33:23.474Z,7.40
2023-02-23T05:35:56.516Z,7.40
2023-02-23T05:38:29.545Z,7.40
2023-02-23T05:41:03.542Z,7.40
2023-02-23T05:43:30.343Z,7.40
2023-02-23T05:46:03.593Z,7.40
2023-02-23T05:48:36.566Z,7.30
2023-02-23T05:51:11.555Z,7.30
2023-02-23T05:53:45.584Z,7.30
2023-02-23T05:56:28.582Z,7.30
2023-02-23T05:59:06.572Z,7.30
2023-02-23T06:01:40.651Z,7.30
2023-02-23T06:04:07.657Z,7.30
2023-02-23T06:06:41.628Z,7.30
2023-02-23T06:09:08.512Z,7.30
2023-02-23T06:11:41.575Z,7.30
2023-02-23T06:14:08.653Z,7.30
2023-02-23T06:16:35.519Z,7.40
2023-02-23T06:19:08.632Z,7.40
2023-02-23T06:21:42.617Z,7.40
2023-02-23T06:24:09.597Z,7.40
2023-02-23T06:26:44.574Z,7.40
2023-02-23T06:29:18.657Z,7.40
2023-02-23T06:31:45.704Z,7.40
2023-02-23T06:34:18.594Z,7.40
2023-02-23T06:36:45.706Z,7.40
2023-02-23T06:39:19.714Z,7.50
2023-02-23T06:41:46.636Z,7.40
2023-02-23T06:44:19.660Z,7.40
2023-02-23T06:46:47.756Z,7.40
2023-02-23T06:49:21.625Z,7.40
2023-02-23T06:51:48.395Z,7.40
2023-02-23T06:54:16.180Z,7.40
2023-02-23T06:56:49.665Z,7.40
2023-02-23T06:59:22.696Z,7.50
2023-02-23T07:01:49.724Z,7.50
2023-02-23T07:04:23.688Z,7.50
2023-02-23T07:06:59.658Z,7.50
2023-02-23T07:09:26.670Z,7.50
2023-02-23T07:11:59.672Z,7.50
2023-02-23T07:14:27.326Z,7.50
2023-02-23T07:17:03.651Z,7.50
2023-02-23T07:19:31.182Z,7.50
2023-02-23T07:22:07.733Z,7.60
2023-02-23T07:24:34.553Z,7.60
2023-02-23T07:27:09.847Z,7.60
2023-02-23T07:29:36.729Z,7.60
2023-02-23T07:32:13.773Z,7.60
2023-02-23T07:34:40.722Z,7.60
2023-02-23T07:37:13.704Z,7.60
2023-02-23T07:39:40.474Z,7.70
2023-02-23T07:42:14.753Z,7.70
2023-02-23T07:44:47.665Z,7.60
2023-02-23T07:47:20.724Z,7.70
2023-02-23T07:49:47.533Z,7.60
2023-02-23T07:52:25.748Z,7.70
2023-02-23T07:54:52.893Z,7.70
2023-02-23T07:57:30.813Z,7.70
2023-02-23T07:59:57.790Z,7.70
2023-02-23T08:02:30.791Z,7.70
2023-02-23T08:05:03.928Z,7.80
2023-02-23T08:07:41.807Z,7.80
2023-02-23T08:10:15.847Z,7.90
2023-02-23T08:12:43.498Z,7.90
2023-02-23T08:15:17.770Z,8.00
2023-02-23T08:17:44.682Z,8.00
2023-02-23T08:20:17.770Z,8.00
2023-02-23T08:22:49.760Z,8.00
2023-02-23T08:25:24.963Z,8.00
2023-02-23T08:27:58.817Z,8.00
2023-02-23T08:30:25.752Z,8.00
2023-02-23T08:32:58.841Z,8.00
2023-02-23T08:35:32.805Z,7.90
2023-02-23T08:38:06.835Z,8.00
2023-02-23T08:40:39.791Z,8.00
2023-02-23T08:43:06.700Z,8.00
2023-02-23T08:45:39.831Z,8.00
2023-02-23T08:48:09.007Z,8.00
2023-02-23T08:50:42.826Z,8.00
2023-02-23T08:53:16.881Z,8.00
2023-02-23T08:55:43.814Z,8.10
2023-02-23T08:58:17.856Z,8.10
2023-02-23T09:00:45.195Z,8.20
2023-02-23T09:03:18.886Z,8.20
2023-02-23T09:05:52.900Z,8.20
2023-02-23T09:08:20.418Z,8.30
2023-02-23T09:10:59.905Z,8.30
2023-02-23T09:13:26.939Z,8.40
2023-02-23T09:16:00.957Z,8.40
2023-02-23T09:18:29.515Z,8.40
2023-02-23T09:21:02.892Z,8.50
2023-02-23T09:23:29.718Z,8.50
2023-02-23T09:26:02.858Z,8.50
2023-02-23T09:28:36.903Z,8.50
2023-02-23T09:31:15.029Z,8.40
2023-02-23T09:33:41.916Z,8.40
2023-02-23T09:36:25.039Z,8.40
2023-02-23T09:39:03.997Z,8.40
2023-02-23T09:42:00.946Z,8.40
2023-02-23T09:44:39.933Z,8.50
2023-02-23T09:47:24.976Z,8.40
2023-02-23T09:49:59.972Z,8.40
2023-02-23T09:52:39.912Z,8.50
2023-02-23T09:55:15.966Z,8.50
2023-02-23T09:58:02.982Z,8.50
2023-02-23T10:00:40.961Z,8.60
2023-02-23T10:03:24.509Z,8.60
2023-02-23T10:06:06.019Z,8.60
2023-02-23T10:09:04.988Z,8.60
2023-02-23T10:11:49.857Z,8.70
2023-02-23T10:14:26.023Z,8.80
2023-02-23T10:16:55.648Z,8.70
2023-02-23T10:19:38.967Z,8.70
2023-02-23T10:22:12.411Z,8.70
2023-02-23T10:24:47.975Z,8.80
2023-02-23T10:27:25.047Z,8.80
2023-02-23T10:30:00.985Z,8.90
2023-02-23T10:32:51.022Z,8.90
2023-02-23T10:35:28.026Z,8.90
2023-02-23T10:37:57.523Z,8.90
2023-02-23T10:40:35.074Z,9.00
2023-02-23T10:43:05.390Z,9.00
2023-02-23T10:45:54.032Z,9.10
2023-02-23T10:48:24.607Z,9.20
2023-02-23T10:51:02.031Z,9.20
2023-02-23T10:53:35.752Z,9.10
2023-02-23T10:56:17.180Z,9.10
2023-02-23T10:59:14.007Z,9.10
2023-02-23T11:02:00.994Z,9.20
2023-02-23T11:04:41.114Z,9.40
2023-02-23T11:07:22.045Z,9.40
2023-02-23T11:09:51.361Z,9.30
2023-02-23T11:12:28.398Z,9.40
2023-02-23T11:14:58.604Z,9.40
2023-02-23T11:17:37.123Z,9.40
2023-02-23T11:20:22.886Z,9.40
2023-02-23T11:23:09.530Z,9.30
2023-02-23T11:25:51.151Z,9.20
2023-02-23T11:28:37.109Z,9.10
2023-02-23T11:31:20.636Z,9.00
2023-02-23T11:34:02.139Z,9.00
2023-02-23T11:36:31.703Z,8.90
2023-02-23T11:39:24.136Z,8.80
2023-02-23T11:42:19.095Z,8.80
2023-02-23T11:45:04.908Z,8.70
2023-02-23T11:47:49.460Z,8.70
2023-02-23T11:50:27.119Z,8.60
2023-02-23T11:53:09.198Z,8.60
2023-02-23T11:55:37.605Z,8.60
2023-02-23T11:58:35.133Z,8.70
2023-02-23T12:01:18.227Z,8.80
2023-02-23T12:03:47.756Z,8.90
2023-02-23T12:06:43.224Z,9.10
2023-02-23T12:09:36.161Z,9.20
2023-02-23T12:12:09.800Z,9.30
2023-02-23T12:14:49.145Z,9.40
2023-02-23T12:17:32.211Z,9.40
2023-02-23T12:20:18.193Z,9.50
2023-02-23T12:23:10.229Z,9.50
2023-02-23T12:25:50.474Z,9.50
2023-02-23T12:28:34.201Z,9.60
2023-02-23T12:31:35.301Z,9.50
2023-02-23T12:34:11.474Z,9.40
2023-02-23T12:37:02.235Z,9.40
2023-02-23T12:39:44.223Z,9.40
2023-02-23T12:42:50.153Z,9.40
2023-02-23T12:45:48.291Z,9.40
2023-02-23T12:48:49.225Z,9.40
2023-02-23T12:51:47.243Z,9.50
2023-02-23T12:54:16.579Z,9.50
2023-02-23T12:56:56.261Z,9.50
2023-02-23T12:59:41.060Z,9.70
2023-02-23T13:02:36.297Z,9.80
2023-02-23T13:05:33.353Z,10.00
2023-02-23T13:08:27.088Z,10.10
2023-02-23T13:11:04.318Z,10.20
2023-02-23T13:13:37.261Z,10.30
2023-02-23T13:16:29.288Z,10.40
2023-02-23T13:19:22.296Z,10.30
2023-02-23T13:22:26.190Z,10.30
2023-02-23T13:25:05.406Z,10.20
2023-02-23T13:27:41.948Z,10.10
2023-02-23T13:30:19.297Z,10.00
2023-02-23T13:32:46.690Z,9.80
2023-02-23T13:35:28.416Z,9.70
2023-02-23T13:38:40.353Z,9.60
2023-02-23T13:41:34.322Z,9.50
2023-02-23T13:44:20.415Z,9.40
2023-02-23T13:47:05.300Z,9.50
2023-02-23T13:50:32.377Z,9.60
2023-02-23T13:53:05.410Z,9.70
2023-02-23T13:55:49.208Z,9.70
2023-02-23T13:58:27.361Z,9.70
2023-02-23T14:01:13.393Z,9.70
2023-02-23T14:03:52.981Z,9.60
2023-02-23T14:06:29.499Z,9.50
2023-02-23T14:09:09.795Z,9.40
2023-02-23T14:11:57.434Z,9.40
2023-02-23T14:14:33.315Z,9.40
2023-02-23T14:17:24.369Z,9.50
2023-02-23T14:20:30.439Z,9.50
2023-02-23T14:23:28.669Z,9.50
2023-02-23T14:26:15.739Z,9.40
2023-02-23T14:28:51.469Z,9.30
2023-02-23T14:31:21.328Z,9.20
2023-02-23T14:33:56.500Z,9.20
2023-02-23T14:36:26.348Z,9.20
2023-02-23T14:38:56.322Z,9.20
2023-02-23T14:41:49.430Z,9.20
2023-02-23T14:44:31.876Z,9.20
2023-02-23T14:47:15.402Z,9.40
2023-02-23T14:49:52.408Z,9.60
2023-02-23T14:52:34.462Z,9.70
2023-02-23T14:55:35.398Z,9.90
2023-02-23T14:58:10.464Z,9.90
2023-02-23T15:00:42.758Z,9.90
2023-02-23T15:03:20.423Z,10.00
2023-02-23T15:06:07.479Z,10.00
2023-02-23T15:08:45.458Z,10.00
2023-02-23T15:11:14.426Z,9.80
2023-02-23T15:13:50.445Z,9.60
2023-02-23T15:16:26.519Z,9.50
2023-02-23T15:19:00.442Z,9.40
2023-02-23T15:21:27.619Z,9.30
2023-02-23T15:24:11.731Z,9.10
2023-02-23T15:26:40.925Z,9.00
2023-02-23T15:29:10.609Z,8.80
2023-02-23T15:31:47.687Z,8.70
2023-02-23T15:34:14.551Z,8.60
2023-02-23T15:36:41.691Z,8.50
2023-02-23T15:39:23.504Z,8.40
2023-02-23T15:41:50.469Z,8.40
2023-02-23T15:44:42.582Z,8.30
2023-02-23T15:47:20.495Z,8.20
2023-02-23T15:49:54.494Z,8.20
2023-02-23T15:52:24.926Z,8.10
2023-02-23T15:55:08.492Z,8.00
2023-02-23T15:57:44.762Z,8.00
2023-02-23T16:00:33.511Z,8.00
2023-02-23T16:03:03.222Z,7.90
2023-02-23T16:05:47.195Z,7.90
2023-02-23T16:08:22.795Z,7.90
2023-02-23T16:11:03.532Z,7.80
2023-02-23T16:13:30.658Z,7.80
2023-02-23T16:16:05.611Z,7.80
2023-02-23T16:18:39.859Z,7.80
2023-02-23T16:21:15.656Z,7.80
2023-02-23T16:23:45.601Z,7.70
2023-02-23T16:26:24.576Z,7.70
2023-02-23T16:28:59.695Z,7.70
2023-02-23T16:31:46.696Z,7.70
2023-02-23T16:34:35.712Z,7.60
2023-02-23T16:37:31.745Z,7.60
2023-02-23T16:40:00.142Z,7.60
2023-02-23T16:42:31.225Z,7.50
2023-02-23T16:45:06.580Z,7.50
2023-02-23T16:47:54.582Z,7.50
2023-02-23T16:50:24.356Z,7.50
2023-02-23T16:52:59.655Z,7.40
2023-02-23T16:55:28.341Z,7.40
2023-02-23T16:58:08.638Z,7.40
2023-02-23T17:00:35.821Z,7.30
2023-02-23T17:03:19.605Z,7.20
2023-02-23T17:05:47.187Z,7.20
2023-02-23T17:08:30.733Z,7.10
2023-02-23T17:10:58.284Z,7.10
2023-02-23T17:13:33.925Z,7.00
2023-02-23T17:16:04.366Z,7.00
2023-02-23T17:18:43.735Z,6.90
2023-02-23T17:21:13.357Z,6.90
2023-02-23T17:23:59.707Z,6.90
2023-02-23T17:26:26.861Z,6.90
2023-02-23T17:29:03.844Z,6.90
2023-02-23T17:31:31.957Z,6.90
2023-02-23T17:33:59.032Z,6.90
2023-02-23T17:36:33.662Z,6.90
2023-02-23T17:39:07.652Z,6.90
2023-02-23T17:41:34.424Z,6.90
2023-02-23T17:44:09.956Z,6.90
2023-02-23T17:46:37.091Z,6.90
2023-02-23T17:49:04.251Z,6.90
2023-02-23T17:51:37.701Z,6.80
2023-02-23T17:54:10.682Z,6.80
2023-02-23T17:56:44.787Z,6.80
2023-02-23T17:59:17.782Z,6.80
2023-02-23T18:01:51.772Z,6.80
2023-02-23T18:04:24.730Z,6.80
2023-02-23T18:06:51.686Z,6.80
2023-02-23T18:09:18.483Z,6.80
2023-02-23T18:11:52.881Z,6.80
2023-02-23T18:14:19.660Z,6.80
2023-02-23T18:16:46.557Z,6.80
2023-02-23T18:19:19.710Z,6.70
2023-02-23T18:21:52.731Z,6.70
2023-02-23T18:24:27.347Z,6.70
2023-02-23T18:27:08.729Z,6.70
2023-02-23T18:29:43.782Z,6.60
2023-02-23T18:32:17.907Z,6.60
2023-02-23T18:34:44.862Z,6.50
2023-02-23T18:37:31.774Z,6.50
2023-02-23T18:39:59.592Z,6.40
2023-02-23T18:42:32.789Z,6.40
2023-02-23T18:45:05.774Z,6.40
2023-02-23T18:47:32.596Z,6.30
2023-02-23T18:50:07.774Z,6.40
2023-02-23T18:52:42.777Z,6.30
2023-02-23T18:55:15.795Z,6.40
2023-02-23T18:57:51.852Z,6.40
2023-02-23T19:00:25.870Z,6.40
2023-02-23T19:03:00.818Z,6.40
2023-02-23T19:05:27.712Z,6.40
2023-02-23T19:08:19.913Z,6.40
2023-02-23T19:10:54.097Z,6.40
2023-02-23T19:13:28.954Z,6.40
2023-02-23T19:15:56.082Z,6.30
2023-02-23T19:18:23.296Z,6.30
2023-02-23T19:21:01.873Z,6.30
2023-02-23T19:23:28.933Z,6.30
2023-02-23T19:25:55.921Z,6.20
2023-02-23T19:28:36.906Z,6.30
2023-02-23T19:31:06.773Z,6.20
2023-02-23T19:33:40.880Z,6.30
2023-02-23T19:36:16.847Z,6.30
2023-02-23T19:38:43.719Z,6.30
2023-02-23T19:41:35.911Z,6.30
2023-02-23T19:44:03.111Z,6.30
2023-02-23T19:46:36.988Z,6.30
2023-02-23T19:49:04.497Z,6.30
2023-02-23T19:51:43.857Z,6.40
2023-02-23T19:54:11.607Z,6.30
2023-02-23T19:56:44.907Z,6.30
2023-02-23T19:59:12.200Z,6.30
2023-02-23T20:01:45.944Z,6.30
2023-02-23T20:04:13.080Z,6.30
2023-02-23T20:06:50.902Z,6.30
2023-02-23T20:09:17.763Z,6.30
2023-02-23T20:11:51.000Z,6.30
2023-02-23T20:14:23.924Z,6.20
2023-02-23T20:16:58.011Z,6.10
2023-02-23T20:19:31.947Z,6.00
2023-02-23T20:21:58.956Z,5.90
2023-02-23T20:24:31.956Z,5.80
2023-02-23T20:27:00.665Z,5.80
2023-02-23T20:29:34.925Z,5.70
2023-02-23T20:32:03.580Z,5.70
2023-02-23T20:34:42.977Z,5.60
2023-02-23T20:37:16.045Z,5.60
2023-02-23T20:39:49.977Z,5.50
2023-02-23T20:42:16.899Z,5.50
2023-02-23T20:44:49.936Z,5.50
2023-02-23T20:47:16.798Z,5.40
2023-02-23T20:49:43.703Z,5.30
2023-02-23T20:52:18.989Z,5.30
2023-02-23T20:54:51.993Z,5.20
2023-02-23T20:57:18.860Z,5.20
2023-02-23T20:59:52.006Z,5.20
2023-02-23T21:02:18.979Z,5.10
2023-02-23T21:04:52.033Z,5.10
2023-02-23T21:07:25.321Z,5.00
2023-02-23T21:10:06.041Z,5.00
2023-02-23T21:12:33.324Z,4.90
2023-02-23T21:15:01.895Z,4.90
2023-02-23T21:17:35.031Z,4.80
2023-02-23T21:20:09.038Z,4.80
2023-02-23T21:22:42.032Z,4.80
2023-02-23T21:25:17.032Z,4.80
2023-02-23T21:27:51.024Z,4.70
2023-02-23T21:30:28.019Z,4.70
2023-02-23T21:32:56.363Z,4.70
2023-02-23T21:35:23.641Z,4.70
2023-02-23T21:37:58.103Z,4.60
2023-02-23T21:40:25.084Z,4.60
2023-02-23T21:42:59.072Z,4.60
2023-02-23T21:45:26.514Z,4.50
2023-02-23T21:48:08.135Z,4.50
2023-02-23T21:50:34.962Z,4.40
2023-02-23T21:53:04.206Z,4.40
2023-02-23T21:55:38.067Z,4.40
2023-02-23T21:58:07.043Z,4.40
2023-02-23T22:00:42.034Z,4.30
2023-02-23T22:03:09.617Z,4.30
2023-02-23T22:05:43.084Z,4.30
2023-02-23T22:08:15.557Z,4.30
2023-02-23T22:10:49.119Z,4.20
2023-02-23T22:13:15.962Z,4.20
2023-02-23T22:15:49.123Z,4.20
2023-02-23T22:18:28.858Z,4.20
2023-02-23T22:21:04.133Z,4.10
2023-02-23T22:23:34.529Z,4.10
2023-02-23T22:26:09.286Z,4.10
2023-02-23T22:28:37.685Z,4.10
2023-02-23T22:31:16.178Z,4.00
2023-02-23T22:33:44.110Z,4.00
2023-02-23T22:36:20.106Z,4.00
2023-02-23T22:38:53.238Z,4.00
2023-02-23T22:41:26.184Z,4.00
2023-02-23T22:43:52.924Z,3.90
2023-02-23T22:46:19.685Z,3.90
2023-02-23T22:48:53.138Z,3.90
2023-02-23T22:51:20.607Z,3.90
2023-02-23T22:53:54.110Z,3.90
2023-02-23T22:56:20.833Z,3.90
2023-02-23T22:58:56.178Z,3.90
2023-02-23T23:01:26.593Z,3.90
2023-02-23T23:04:00.479Z,3.80
2023-02-23T23:06:27.474Z,3.90
2023-02-23T23:08:56.769Z,3.80
2023-02-23T23:11:33.188Z,3.80
2023-02-23T23:14:13.180Z,3.80
2023-02-23T23:16:54.229Z,3.80
2023-02-23T23:19:31.314Z,3.80
2023-02-23T23:22:00.483Z,3.80
2023-02-23T23:24:27.441Z,3.70
2023-02-23T23:27:02.216Z,3.70
2023-02-23T23:29:32.503Z,3.70
2023-02-23T23:32:11.320Z,3.70
2023-02-23T23:34:44.219Z,3.60
2023-02-23T23:37:17.200Z,3.60
2023-02-23T23:39:44.587Z,3.60
2023-02-23T23:42:22.390Z,3.50
2023-02-23T23:44:49.123Z,3.50
2023-02-23T23:47:15.879Z,3.50
2023-02-23T23:49:49.269Z,3.50
2023-02-23T23:52:24.228Z,3.50
2023-02-23T23:54:58.202Z,3.40
2023-02-23T23:57:30.917Z,3.40
